createdAt,value
2023-07-23T00:01:00.345Z,3.65
2023-07-23T00:03:27.257Z,3.60
2023-07-23T00:05:54.151Z,3.90
2023-07-23T00:08:21.009Z,3.83
2023-07-23T00:10:47.928Z,3.88
2023-07-23T00:13:14.809Z,3.88
2023-07-23T00:15:41.682Z,3.78
2023-07-23T00:18:08.585Z,3.88
2023-07-23T00:20:35.427Z,4.22
2023-07-23T00:23:02.388Z,4.10
2023-07-23T00:25:29.322Z,3.72
2023-07-23T00:27:56.189Z,3.72
2023-07-23T00:30:23.163Z,3.97
2023-07-23T00:32:50.314Z,4.00
2023-07-23T00:35:17.552Z,4.07
2023-07-23T00:37:44.435Z,4.25
2023-07-23T00:40:12.321Z,4.15
2023-07-23T00:42:39.753Z,3.95
2023-07-23T00:45:07.103Z,3.53
2023-07-23T00:47:36.164Z,3.63
2023-07-23T00:50:04.370Z,3.85
2023-07-23T00:52:33.797Z,3.58
2023-07-23T00:55:01.950Z,3.92
2023-07-23T00:57:34.240Z,3.30
2023-07-23T01:00:01.952Z,3.47
2023-07-23T01:02:36.243Z,3.60
2023-07-23T01:05:04.717Z,4.03
2023-07-23T01:07:35.257Z,3.60
2023-07-23T01:10:04.982Z,3.85
2023-07-23T01:12:35.468Z,3.40
2023-07-23T01:15:05.996Z,3.47
2023-07-23T01:17:37.881Z,3.17
2023-07-23T01:20:07.231Z,3.88
2023-07-23T01:22:35.369Z,4.07
2023-07-23T01:25:08.198Z,3.60
2023-07-23T01:27:35.596Z,3.83
2023-07-23T01:30:02.613Z,4.28
2023-07-23T01:32:37.577Z,4.18
2023-07-23T01:35:11.055Z,4.03
2023-07-23T01:37:38.167Z,3.97
2023-07-23T01:40:05.809Z,4.15
2023-07-23T01:42:33.674Z,4.03
2023-07-23T01:45:05.015Z,4.32
2023-07-23T01:47:34.624Z,4.32
2023-07-23T01:50:01.637Z,4.00
2023-07-23T01:52:34.204Z,4.10
2023-07-23T01:55:01.992Z,3.53
2023-07-23T01:57:33.002Z,3.65
2023-07-23T02:00:00.101Z,3.80
2023-07-23T02:02:27.318Z,3.75
2023-07-23T02:04:54.339Z,3.45
2023-07-23T02:07:21.591Z,3.08
2023-07-23T02:09:52.158Z,3.30
2023-07-23T02:12:19.220Z,3.63
2023-07-23T02:14:46.394Z,3.88
2023-07-23T02:17:13.536Z,3.90
2023-07-23T02:19:40.583Z,4.20
2023-07-23T02:22:07.986Z,4.40
2023-07-23T02:24:34.940Z,4.10
2023-07-23T02:27:01.802Z,3.65
2023-07-23T02:29:28.627Z,3.83
2023-07-23T02:31:55.600Z,3.83
2023-07-23T02:34:22.654Z,4.00
2023-07-23T02:36:49.586Z,3.80
2023-07-23T02:39:16.530Z,3.42
2023-07-23T02:41:43.513Z,3.80
2023-07-23T02:44:10.461Z,3.40
2023-07-23T02:46:37.425Z,3.35
2023-07-23T02:49:04.553Z,3.80
2023-07-23T02:51:31.753Z,3.88
2023-07-23T02:53:58.898Z,3.47
2023-07-23T02:56:25.785Z,3.58
2023-07-23T02:58:52.658Z,3.50
2023-07-23T03:01:21.233Z,3.13
2023-07-23T03:03:48.777Z,3.35
2023-07-23T03:06:16.858Z,3.17
2023-07-23T03:08:43.846Z,3.28
2023-07-23T03:11:10.864Z,3.00
2023-07-23T03:13:37.735Z,3.60
2023-07-23T03:16:05.349Z,3.63
2023-07-23T03:18:32.430Z,3.35
2023-07-23T03:20:59.856Z,3.45
2023-07-23T03:23:27.497Z,3.33
2023-07-23T03:25:54.489Z,3.10
2023-07-23T03:28:21.514Z,3.38
2023-07-23T03:30:49.147Z,3.00
2023-07-23T03:33:16.025Z,3.33
2023-07-23T03:35:42.876Z,3.13
2023-07-23T03:38:09.711Z,3.40
2023-07-23T03:40:36.697Z,3.15
2023-07-23T03:43:03.625Z,2.88
2023-07-23T03:45:30.706Z,2.92
2023-07-23T03:47:57.617Z,3.03
2023-07-23T03:50:25.565Z,2.90
2023-07-23T03:52:52.420Z,2.92
2023-07-23T03:55:21.075Z,2.70
2023-07-23T03:57:48.537Z,2.65
2023-07-23T04:00:15.575Z,3.20
2023-07-23T04:02:43.506Z,3.45
2023-07-23T04:05:10.603Z,3.05
2023-07-23T04:07:37.468Z,2.80
2023-07-23T04:10:04.986Z,2.92
2023-07-23T04:12:34.891Z,2.92
2023-07-23T04:15:05.573Z,2.65
2023-07-23T04:17:35.862Z,2.80
2023-07-23T04:20:03.212Z,2.88
2023-07-23T04:22:32.952Z,2.42
2023-07-23T04:25:00.164Z,2.90
2023-07-23T04:27:27.242Z,2.80
2023-07-23T04:29:55.147Z,2.92
2023-07-23T04:32:22.063Z,3.08
2023-07-23T04:34:49.343Z,2.75
2023-07-23T04:37:16.767Z,3.15
2023-07-23T04:39:43.626Z,3.00
2023-07-23T04:42:10.534Z,2.80
2023-07-23T04:44:37.495Z,2.70
2023-07-23T04:47:04.904Z,2.78
2023-07-23T04:49:31.795Z,2.88
2023-07-23T04:51:58.798Z,3.30
2023-07-23T04:54:25.679Z,3.03
2023-07-23T04:56:52.531Z,3.22
2023-07-23T04:59:19.353Z,2.92
2023-07-23T05:01:46.275Z,3.10
2023-07-23T05:04:13.241Z,3.47
2023-07-23T05:06:40.189Z,3.03
2023-07-23T05:09:07.251Z,3.28
2023-07-23T05:11:34.153Z,3.08
2023-07-23T05:14:01.318Z,3.20
2023-07-23T05:16:28.254Z,2.67
2023-07-23T05:18:55.059Z,3.40
2023-07-23T05:21:22.525Z,3.08
2023-07-23T05:23:49.377Z,2.92
2023-07-23T05:26:16.195Z,2.78
2023-07-23T05:28:43.096Z,3.15
2023-07-23T05:31:10.031Z,2.60
2023-07-23T05:33:36.878Z,2.55
2023-07-23T05:36:03.909Z,3.00
2023-07-23T05:38:30.773Z,2.70
2023-07-23T05:40:59.001Z,2.45
2023-07-23T05:43:29.056Z,2.83
2023-07-23T05:45:58.120Z,2.38
2023-07-23T05:48:25.077Z,2.10
2023-07-23T05:50:52.249Z,2.00
2023-07-23T05:53:19.214Z,2.15
2023-07-23T05:55:46.119Z,2.60
2023-07-23T05:58:12.969Z,2.30
2023-07-23T06:00:39.969Z,2.75
2023-07-23T06:03:07.021Z,2.65
2023-07-23T06:05:34.041Z,2.97
2023-07-23T06:08:00.874Z,2.42
2023-07-23T06:10:27.777Z,2.67
2023-07-23T06:12:54.835Z,3.00
2023-07-23T06:15:22.158Z,2.50
2023-07-23T06:17:49.405Z,2.75
2023-07-23T06:20:16.540Z,2.50
2023-07-23T06:22:43.534Z,3.78
2023-07-23T06:25:10.483Z,2.88
2023-07-23T06:27:37.427Z,2.97
2023-07-23T06:30:04.577Z,3.10
2023-07-23T06:32:32.806Z,3.20
2023-07-23T06:34:59.674Z,2.45
2023-07-23T06:37:26.627Z,3.67
2023-07-23T06:39:53.462Z,2.90
2023-07-23T06:42:20.317Z,3.10
2023-07-23T06:44:47.288Z,3.17
2023-07-23T06:47:15.101Z,2.83
2023-07-23T06:49:41.975Z,2.85
2023-07-23T06:52:09.040Z,2.85
2023-07-23T06:54:39.307Z,2.85
2023-07-23T06:57:06.794Z,3.65
2023-07-23T06:59:33.804Z,2.83
2023-07-23T07:02:00.902Z,3.00
2023-07-23T07:04:30.320Z,3.20
2023-07-23T07:06:57.430Z,3.00
2023-07-23T07:09:24.426Z,3.25
2023-07-23T07:11:52.220Z,2.90
2023-07-23T07:14:19.137Z,3.10
2023-07-23T07:16:46.199Z,2.97
2023-07-23T07:19:13.253Z,3.38
2023-07-23T07:21:40.174Z,3.15
2023-07-23T07:24:07.887Z,3.10
2023-07-23T07:26:34.788Z,3.10
2023-07-23T07:29:01.719Z,3.33
2023-07-23T07:31:28.905Z,3.45
2023-07-23T07:33:56.024Z,3.63
2023-07-23T07:36:22.904Z,3.70
2023-07-23T07:38:49.814Z,3.53
2023-07-23T07:41:16.833Z,3.17
2023-07-23T07:43:43.873Z,3.13
2023-07-23T07:46:10.913Z,3.13
2023-07-23T07:48:38.970Z,3.10
2023-07-23T07:51:08.380Z,3.40
2023-07-23T07:53:37.475Z,2.90
2023-07-23T07:56:05.214Z,3.15
2023-07-23T07:58:32.856Z,2.85
2023-07-23T08:01:01.518Z,2.63
2023-07-23T08:03:31.350Z,2.72
2023-07-23T08:05:59.659Z,2.67
2023-07-23T08:08:28.893Z,2.40
2023-07-23T08:10:58.123Z,2.58
2023-07-23T08:13:25.887Z,2.95
2023-07-23T08:15:56.827Z,2.70
2023-07-23T08:18:25.508Z,3.25
2023-07-23T08:20:53.425Z,3.10
2023-07-23T08:23:20.694Z,3.63
2023-07-23T08:25:50.697Z,2.88
2023-07-23T08:28:23.674Z,3.08
2023-07-23T08:30:51.366Z,3.08
2023-07-23T08:33:23.883Z,2.70
2023-07-23T08:35:51.195Z,3.33
2023-07-23T08:38:18.373Z,3.30
2023-07-23T08:40:46.628Z,3.50
2023-07-23T08:43:22.904Z,3.50
2023-07-23T08:45:52.658Z,2.80
2023-07-23T08:48:21.634Z,3.15
2023-07-23T08:50:50.237Z,3.10
2023-07-23T08:53:18.852Z,2.88
2023-07-23T08:55:47.620Z,2.80
2023-07-23T08:58:19.575Z,2.92
2023-07-23T09:00:48.728Z,2.95
2023-07-23T09:03:21.265Z,2.80
2023-07-23T09:05:48.480Z,2.88
2023-07-23T09:08:15.338Z,3.35
2023-07-23T09:10:42.339Z,2.80
2023-07-23T09:13:15.695Z,3.03
2023-07-23T09:15:43.862Z,3.08
2023-07-23T09:18:10.683Z,3.40
2023-07-23T09:20:39.042Z,3.22
2023-07-23T09:23:09.041Z,3.35
2023-07-23T09:25:35.986Z,3.20
2023-07-23T09:28:03.564Z,2.80
2023-07-23T09:30:30.594Z,3.05
2023-07-23T09:33:07.681Z,2.88
2023-07-23T09:35:34.746Z,3.03
2023-07-23T09:38:01.622Z,3.40
2023-07-23T09:40:39.254Z,2.70
2023-07-23T09:43:06.789Z,3.75
2023-07-23T09:45:39.188Z,4.63
2023-07-23T09:48:16.547Z,4.60
2023-07-23T09:50:45.906Z,4.97
2023-07-23T09:53:16.909Z,5.13
2023-07-23T09:55:47.489Z,5.00
2023-07-23T09:58:18.413Z,4.68
2023-07-23T10:00:45.990Z,5.50
2023-07-23T10:03:16.358Z,5.50
2023-07-23T10:05:43.931Z,5.57
2023-07-23T10:08:12.950Z,4.90
2023-07-23T10:10:39.819Z,5.13
2023-07-23T10:13:06.785Z,4.82
2023-07-23T10:15:34.946Z,4.88
2023-07-23T10:18:02.753Z,4.90
2023-07-23T10:20:32.352Z,5.25
2023-07-23T10:22:59.682Z,6.30
2023-07-23T10:25:34.610Z,4.72
2023-07-23T10:28:08.661Z,4.63
2023-07-23T10:33:25.403Z,4.57
2023-07-23T10:35:56.085Z,4.60
2023-07-23T10:38:31.607Z,4.03
2023-07-23T10:40:59.715Z,4.40
2023-07-23T10:43:38.411Z,4.47
2023-07-23T10:46:07.082Z,4.45
2023-07-23T10:48:41.457Z,4.00
2023-07-23T10:51:13.099Z,3.65
2023-07-23T10:53:42.034Z,3.55
2023-07-23T10:56:29.123Z,4.15
2023-07-23T10:58:58.267Z,4.30
2023-07-23T11:01:27.876Z,3.80
2023-07-23T11:03:58.672Z,3.88
2023-07-23T11:06:27.071Z,3.65
2023-07-23T11:08:58.003Z,3.47
2023-07-23T11:11:32.276Z,3.63
2023-07-23T11:13:59.236Z,3.50
2023-07-23T11:16:27.461Z,3.83
2023-07-23T11:18:56.007Z,3.40
2023-07-23T11:21:23.081Z,3.88
2023-07-23T11:23:49.894Z,3.70
2023-07-23T11:26:18.074Z,3.80
2023-07-23T11:28:45.616Z,3.50
2023-07-23T11:31:12.490Z,4.13
2023-07-23T11:33:39.702Z,3.60
2023-07-23T11:36:06.502Z,3.55
2023-07-23T11:38:33.899Z,3.50
2023-07-23T11:41:01.767Z,3.30
2023-07-23T11:43:29.106Z,3.58
2023-07-23T11:45:56.106Z,3.53
2023-07-23T11:48:23.940Z,3.42
2023-07-23T11:50:51.471Z,3.72
2023-07-23T11:53:32.467Z,3.20
2023-07-23T11:56:14.511Z,4.00
2023-07-23T11:58:42.189Z,3.67
2023-07-23T12:01:10.683Z,3.70
2023-07-23T12:03:43.370Z,4.13
2023-07-23T12:06:13.176Z,4.10
2023-07-23T12:08:40.514Z,5.43
2023-07-23T12:11:16.836Z,5.43
2023-07-23T12:13:50.982Z,5.65
2023-07-23T12:16:39.024Z,4.85
2023-07-23T12:19:11.697Z,4.78
2023-07-23T12:21:40.725Z,4.30
2023-07-23T12:24:24.250Z,4.72
2023-07-23T12:26:53.444Z,4.40
2023-07-23T12:29:22.167Z,4.10
2023-07-23T12:31:50.653Z,4.90
2023-07-23T12:34:17.929Z,5.30
2023-07-23T12:36:45.308Z,4.70
2023-07-23T12:39:12.555Z,4.75
2023-07-23T12:41:40.546Z,5.13
2023-07-23T12:44:08.661Z,5.00
2023-07-23T12:46:35.525Z,4.85
2023-07-23T12:49:02.457Z,4.38
2023-07-23T12:51:29.376Z,4.50
2023-07-23T12:53:56.327Z,4.60
2023-07-23T12:56:23.316Z,4.15
2023-07-23T12:58:50.371Z,4.15
2023-07-23T13:01:17.303Z,4.05
2023-07-23T13:03:44.419Z,3.63
2023-07-23T13:06:12.139Z,3.78
2023-07-23T13:08:39.708Z,3.70
2023-07-23T13:11:06.787Z,3.65
2023-07-23T13:13:34.481Z,3.45
2023-07-23T13:16:01.623Z,3.53
2023-07-23T13:18:28.749Z,3.63
2023-07-23T13:20:55.669Z,3.45
2023-07-23T13:23:22.865Z,3.50
2023-07-23T13:25:51.471Z,3.30
2023-07-23T13:28:18.360Z,3.28
2023-07-23T13:30:45.638Z,3.00
2023-07-23T13:33:13.315Z,2.90
2023-07-23T13:35:40.567Z,2.60
2023-07-23T13:38:07.582Z,2.63
2023-07-23T13:40:34.664Z,2.72
2023-07-23T13:43:01.672Z,2.70
2023-07-23T13:45:28.785Z,2.92
2023-07-23T13:47:55.720Z,2.70
2023-07-23T13:50:23.887Z,2.97
2023-07-23T13:52:52.199Z,3.00
2023-07-23T13:55:19.169Z,2.88
2023-07-23T13:57:47.238Z,2.35
2023-07-23T14:00:14.885Z,2.70
2023-07-23T14:02:44.333Z,2.67
2023-07-23T14:05:12.039Z,2.92
2023-07-23T14:07:39.282Z,3.00
2023-07-23T14:10:07.815Z,2.85
2023-07-23T14:12:35.246Z,2.83
2023-07-23T14:15:02.762Z,2.92
2023-07-23T14:17:33.830Z,2.90
2023-07-23T14:20:00.690Z,2.80
2023-07-23T14:22:27.588Z,3.03
2023-07-23T14:24:54.514Z,3.13
2023-07-23T14:27:21.450Z,2.75
2023-07-23T14:29:48.373Z,3.17
2023-07-23T14:32:15.953Z,3.33
2023-07-23T14:34:43.191Z,3.00
2023-07-23T14:37:11.178Z,3.00
2023-07-23T14:39:41.756Z,2.90
2023-07-23T14:42:09.083Z,2.90
2023-07-23T14:44:36.368Z,2.78
2023-07-23T14:47:03.804Z,3.00
2023-07-23T14:49:31.405Z,2.65
2023-07-23T14:51:58.493Z,2.50
2023-07-23T14:54:25.368Z,3.22
2023-07-23T14:56:54.267Z,2.90
2023-07-23T14:59:21.229Z,2.90
2023-07-23T15:01:48.935Z,3.30
2023-07-23T15:04:16.740Z,2.95
2023-07-23T15:06:49.049Z,2.72
2023-07-23T15:09:17.488Z,2.70
2023-07-23T15:11:45.591Z,2.80
2023-07-23T15:14:16.225Z,3.20
2023-07-23T15:16:46.702Z,3.40
2023-07-23T15:19:13.783Z,3.10
2023-07-23T15:21:40.860Z,3.03
2023-07-23T15:24:08.353Z,2.72
2023-07-23T15:26:39.261Z,3.10
2023-07-23T15:29:07.234Z,2.95
2023-07-23T15:31:35.293Z,3.00
2023-07-23T15:34:03.069Z,2.90
2023-07-23T15:36:29.996Z,2.92
2023-07-23T15:38:59.331Z,3.10
2023-07-23T15:41:26.620Z,3.03
2023-07-23T15:43:53.712Z,3.22
2023-07-23T15:46:20.796Z,3.00
2023-07-23T15:48:47.800Z,3.20
2023-07-23T15:51:14.849Z,3.10
2023-07-23T15:53:41.654Z,3.40
2023-07-23T15:56:08.538Z,3.35
2023-07-23T15:58:35.498Z,3.30
2023-07-23T16:01:02.485Z,3.00
2023-07-23T16:03:29.440Z,2.95
2023-07-23T16:05:56.529Z,2.90
2023-07-23T16:08:23.581Z,2.88
2023-07-23T16:10:50.482Z,2.50
2023-07-23T16:13:17.357Z,2.80
2023-07-23T16:15:44.283Z,3.10
2023-07-23T16:18:11.343Z,2.38
2023-07-23T16:20:38.259Z,2.60
2023-07-23T16:23:05.122Z,3.00
2023-07-23T16:25:32.013Z,2.85
2023-07-23T16:28:00.792Z,2.70
2023-07-23T16:30:27.660Z,2.70
2023-07-23T16:32:54.870Z,2.75
2023-07-23T16:35:22.182Z,2.95
2023-07-23T16:37:52.003Z,2.85
2023-07-23T16:40:20.629Z,3.10
2023-07-23T16:42:50.422Z,2.70
2023-07-23T16:45:18.379Z,3.10
2023-07-23T16:47:45.937Z,3.20
2023-07-23T16:50:13.779Z,2.97
2023-07-23T16:52:40.877Z,2.92
2023-07-23T16:55:09.004Z,3.10
2023-07-23T16:57:36.176Z,3.15
2023-07-23T17:00:03.786Z,2.75
2023-07-23T17:02:35.368Z,3.15
2023-07-23T17:05:02.326Z,3.08
2023-07-23T17:07:32.889Z,3.22
2023-07-23T17:09:59.788Z,3.25
2023-07-23T17:12:26.790Z,2.97
2023-07-23T17:14:55.480Z,3.40
2023-07-23T17:17:22.634Z,3.22
2023-07-23T17:19:50.005Z,3.30
2023-07-23T17:22:16.929Z,3.30
2023-07-23T17:24:43.946Z,3.20
2023-07-23T17:27:10.999Z,3.40
2023-07-23T17:29:37.874Z,3.53
2023-07-23T17:32:06.187Z,3.22
2023-07-23T17:34:33.106Z,3.45
2023-07-23T17:37:00.107Z,3.78
2023-07-23T17:39:28.594Z,3.13
2023-07-23T17:41:55.781Z,3.25
2023-07-23T17:44:22.740Z,3.65
2023-07-23T17:46:49.619Z,3.50
2023-07-23T17:49:16.682Z,3.35
2023-07-23T17:51:43.649Z,3.70
2023-07-23T17:54:10.550Z,3.80
2023-07-23T17:56:37.460Z,3.58
2023-07-23T17:59:04.388Z,3.00
2023-07-23T18:01:32.021Z,3.38
2023-07-23T18:04:01.924Z,3.50
2023-07-23T18:06:29.712Z,2.72
2023-07-23T18:08:56.980Z,2.63
2023-07-23T18:11:24.336Z,2.80
2023-07-23T18:13:51.425Z,2.50
2023-07-23T18:16:18.539Z,2.50
2023-07-23T18:18:45.775Z,3.47
2023-07-23T18:21:13.122Z,4.35
2023-07-23T18:23:40.466Z,3.35
2023-07-23T18:26:08.039Z,3.40
2023-07-23T18:28:37.909Z,3.85
2023-07-23T18:31:17.916Z,4.22
2023-07-23T18:33:52.400Z,4.57
2023-07-23T18:36:19.699Z,4.90
2023-07-23T18:38:46.705Z,5.35
2023-07-23T18:41:16.092Z,5.03
2023-07-23T18:43:43.357Z,4.50
2023-07-23T18:46:10.363Z,4.30
2023-07-23T18:48:37.231Z,4.00
2023-07-23T18:51:04.119Z,3.88
2023-07-23T18:53:30.998Z,3.83
2023-07-23T18:55:57.939Z,3.92
2023-07-23T18:58:24.879Z,4.43
2023-07-23T19:00:51.789Z,4.20
2023-07-23T19:03:18.659Z,4.82
2023-07-23T19:05:45.634Z,4.78
2023-07-23T19:08:12.599Z,4.40
2023-07-23T19:10:39.520Z,4.90
2023-07-23T19:13:06.376Z,5.25
2023-07-23T19:15:33.395Z,5.50
2023-07-23T19:18:00.450Z,5.57
2023-07-23T19:20:27.415Z,5.68
2023-07-23T19:22:54.411Z,5.82
2023-07-23T19:25:21.320Z,5.55
2023-07-23T19:27:50.190Z,5.45
2023-07-23T19:30:17.218Z,5.40
2023-07-23T19:32:44.149Z,5.53
2023-07-23T19:35:11.139Z,5.32
2023-07-23T19:37:38.080Z,5.82
2023-07-23T19:40:05.232Z,5.00
2023-07-23T19:42:32.413Z,6.05
2023-07-23T19:44:59.286Z,5.70
2023-07-23T19:47:26.205Z,6.10
2023-07-23T19:49:53.108Z,5.75
2023-07-23T19:52:20.026Z,5.82
2023-07-23T19:54:46.993Z,6.28
2023-07-23T19:57:17.145Z,5.97
2023-07-23T19:59:44.070Z,5.53
2023-07-23T20:02:10.927Z,5.57
2023-07-23T20:04:38.485Z,6.57
2023-07-23T20:07:06.267Z,6.25
2023-07-23T20:09:34.046Z,6.78
2023-07-23T20:12:01.422Z,6.93
2023-07-23T20:14:29.160Z,6.18
2023-07-23T20:16:56.537Z,5.93
2023-07-23T20:19:23.469Z,6.97
2023-07-23T20:21:50.336Z,7.25
2023-07-23T20:24:17.480Z,6.30
2023-07-23T20:26:44.510Z,6.53
2023-07-23T20:29:11.624Z,7.03
2023-07-23T20:31:38.867Z,6.25
2023-07-23T20:34:06.692Z,6.28
2023-07-23T20:36:34.276Z,6.10
2023-07-23T20:39:03.508Z,5.25
2023-07-23T20:41:31.205Z,5.70
2023-07-23T20:43:58.637Z,5.57
2023-07-23T20:46:29.195Z,5.60
2023-07-23T20:48:56.429Z,5.65
2023-07-23T20:51:23.533Z,5.10
2023-07-23T20:53:50.412Z,5.35
2023-07-23T20:56:17.591Z,4.88
2023-07-23T20:58:44.736Z,4.63
2023-07-23T21:01:12.233Z,4.63
2023-07-23T21:03:39.175Z,4.72
2023-07-23T21:06:06.162Z,4.40
2023-07-23T21:08:33.078Z,4.22
2023-07-23T21:11:00.027Z,3.72
2023-07-23T21:13:27.238Z,3.58
2023-07-23T21:15:56.282Z,3.92
2023-07-23T21:18:25.268Z,3.83
2023-07-23T21:20:52.612Z,3.40
2023-07-23T21:23:22.735Z,3.58
2023-07-23T21:25:49.541Z,3.58
2023-07-23T21:28:19.413Z,3.85
2023-07-23T21:30:46.296Z,3.90
2023-07-23T21:33:13.383Z,4.00
2023-07-23T21:35:42.187Z,3.70
2023-07-23T21:38:13.712Z,3.60
2023-07-23T21:40:40.687Z,3.80
2023-07-23T21:43:07.711Z,4.20
2023-07-23T21:45:34.543Z,3.53
2023-07-23T21:48:01.839Z,3.60
2023-07-23T21:50:29.215Z,3.35
2023-07-23T21:52:56.326Z,3.38
2023-07-23T21:55:23.304Z,3.70
2023-07-23T21:57:50.252Z,3.20
2023-07-23T22:00:17.960Z,3.13
2023-07-23T22:02:45.081Z,3.70
2023-07-23T22:05:12.319Z,3.30
2023-07-23T22:07:39.482Z,3.15
2023-07-23T22:10:08.591Z,3.55
2023-07-23T22:12:36.357Z,3.38
2023-07-23T22:15:03.925Z,3.85
2023-07-23T22:17:33.229Z,4.05
2023-07-23T22:20:00.249Z,3.75
2023-07-23T22:22:27.347Z,4.07
2023-07-23T22:24:54.404Z,4.03
2023-07-23T22:27:21.449Z,4.13
2023-07-23T22:29:48.432Z,3.72
2023-07-23T22:32:15.359Z,3.90
2023-07-23T22:34:42.615Z,3.40
2023-07-23T22:37:09.601Z,3.65
2023-07-23T22:39:36.640Z,2.88
2023-07-23T22:42:04.764Z,3.15
2023-07-23T22:44:31.951Z,3.33
2023-07-23T22:46:59.178Z,3.38
2023-07-23T22:49:26.226Z,3.50
2023-07-23T22:51:53.304Z,2.95
2023-07-23T22:54:20.274Z,3.03
2023-07-23T22:56:47.328Z,3.17
2023-07-23T22:59:14.402Z,2.88
2023-07-23T23:01:41.648Z,3.00
2023-07-23T23:04:08.837Z,2.85
2023-07-23T23:06:36.068Z,2.80
2023-07-23T23:09:03.045Z,3.10
2023-07-23T23:11:30.043Z,3.00
2023-07-23T23:13:57.016Z,2.75
2023-07-23T23:16:24.109Z,2.50
2023-07-23T23:18:51.263Z,3.00
2023-07-23T23:21:18.345Z,2.90
2023-07-23T23:23:45.404Z,3.00
2023-07-23T23:26:12.498Z,2.85
2023-07-23T23:28:39.535Z,2.70
2023-07-23T23:31:06.909Z,2.70
2023-07-23T23:33:34.043Z,2.80
2023-07-23T23:36:01.045Z,2.85
2023-07-23T23:38:28.058Z,2.90
2023-07-23T23:40:55.975Z,3.22
2023-07-23T23:43:23.469Z,3.20
2023-07-23T23:45:51.102Z,3.10
2023-07-23T23:48:18.473Z,2.88
2023-07-23T23:50:46.016Z,2.95
2023-07-23T23:53:14.429Z,2.78
2023-07-23T23:55:41.452Z,3.00
2023-07-23T23:58:08.819Z,2.90
